Latest Weather Observations for Sydney Airport

IDN60801

Issued at 6:34 pm EDT Monday 26 January 2015 (issued every 30 minutes, with the page automatically refreshed every 10 minutes)

About weather observations | Map of weather stations | Latest weather observations for NSW | Other Formats
Station Details ID: 066037 Name: SYDNEY AIRPORT AMO Lat: -33.95 Lon: 151.17 Height: 6.0 m
Data from the previous 72 hours. | See also: Recent months at Sydney Airport
Date/Time
EDT
Temp
°C
App
Temp
°C
Dew
Point
Rel
Hum
%
Delta-T
°C
Wind Press
QNH
hPa
Press
MSL
hPa
Rain
since 9 am
mm
Dir
 
Spd
km/h
Gust
km/h
Spd
kts
Gust
kts
26/06:12pm 18.9 15.6 17.9 94 0.6 S 32 37 17 20 1013.4 1013.4 0.6
26/05:49pm 19.1 15.8 18.0 93 0.7 S 32 39 17 21 1013.5 1013.5 0.4
26/05:43pm 19.1 16.0 17.6 91 0.9 S 30 35 16 19 1013.4 1013.4 0.2
26/05:30pm 19.5 16.7 17.4 88 1.3 S 28 37 15 20 1013.3 1013.3 0.0
26/05:00pm 19.4 15.4 16.7 84 1.6 S 33 39 18 21 1013.5 1013.5 0.0
26/04:30pm 19.7 15.9 17.1 85 1.6 S 33 41 18 22 1013.8 1013.8 0.0
26/04:00pm 19.5 15.8 17.4 88 1.3 S 33 41 18 22 1013.6 1013.6 0.0
26/03:39pm 19.6 16.0 17.3 86 1.4 S 32 54 17 29 1013.5 1013.5 0.0
26/03:30pm 19.4 15.6 17.3 88 1.3 S 33 41 18 22 1013.4 1013.4 0.0
26/03:00pm 20.1 16.8 17.1 83 1.8 S 30 37 16 20 1013.4 1013.4 0.0
26/02:30pm 19.8 16.6 17.3 85 1.5 S 30 35 16 19 1013.4 1013.4 0.0
26/02:00pm 19.5 16.3 17.2 86 1.4 S 30 35 16 19 1013.6 1013.6 0.0
26/01:30pm 19.9 16.4 17.4 85 1.5 S 32 37 17 20 1013.6 1013.6 0.0
26/01:00pm 20.3 17.0 17.0 81 2.0 S 30 35 16 19 1013.6 1013.6 0.0
26/12:30pm 20.2 17.4 17.3 83 1.8 S 28 37 15 20 1013.7 1013.7 0.0
26/12:00pm 19.8 16.7 17.5 86 1.4 S 30 41 16 22 1013.7 1013.7 0.0
26/11:30am 20.3 16.7 17.2 82 1.9 S 32 39 17 21 1013.7 1013.7 0.0
26/11:00am 20.7 17.8 17.1 80 2.2 SSW 28 37 15 20 1013.4 1013.4 0.0
26/10:30am 20.6 17.0 17.2 81 2.1 SSW 32 39 17 21 1013.4 1013.4 0.0
26/10:00am 20.2 17.0 17.3 83 1.8 SSW 30 35 16 19 1013.3 1013.3 0.0
26/09:30am 20.1 16.7 17.8 86 1.4 SSW 32 39 17 21 1013.1 1013.1 0.0
26/09:00am 20.3 16.9 17.7 85 1.6 SSW 32 41 17 22 1013.0 1013.0 0.2
26/08:30am 20.5 16.9 17.6 83 1.8 SSW 33 39 18 21 1012.8 1012.8 0.2
26/08:00am 20.9 18.1 17.3 80 2.2 S 28 35 15 19 1012.4 1012.4 0.2
26/07:30am 20.6 17.8 17.3 81 2.0 SSW 28 33 15 18 1012.1 1012.1 0.2
26/07:00am 20.7 17.3 17.8 83 1.8 SSW 32 43 17 23 1011.8 1011.8 0.2
26/06:30am 21.2 18.2 17.8 81 2.1 SSW 30 39 16 21 1011.2 1011.2 0.2
26/05:30am 20.3 17.8 18.0 87 1.4 SSW 28 37 15 20 1010.7 1010.7 0.2
26/05:00am 20.3 17.8 18.0 87 1.4 SSW 28 33 15 18 1010.6 1010.6 0.2
26/04:30am 20.2 16.9 17.9 87 1.4 SSW 32 41 17 22 1010.4 1010.4 0.2
26/04:00am 20.1 18.1 18.2 89 1.2 SW 26 33 14 18 1010.5 1010.5 0.0
26/03:30am 20.6 17.7 18.0 85 1.6 SSW 30 35 16 19 1010.3 1010.3 0.0
26/03:00am 21.3 18.5 18.3 83 1.9 SSW 30 35 16 19 1010.0 1010.0 0.0
26/02:30am 22.1 20.8 18.1 78 2.5 S 22 35 12 19 1009.9 1009.9 0.0
26/02:00am 22.3 20.2 18.0 76 2.7 S 26 33 14 18 1010.1 1010.1 0.0
26/01:30am 22.2 20.7 18.5 79 2.3 S 24 30 13 16 1010.0 1010.0 0.0
26/01:00am 22.2 20.8 18.7 80 2.2 S 24 30 13 16 1009.9 1009.9 0.0
26/12:30am 22.3 19.2 18.3 78 2.5 S 32 37 17 20 1009.6 1009.6 0.0
 
Date/Time
EDT
Temp
°C
App
Temp
°C
Dew
Point
Rel
Hum
%
Delta-T
°C
Wind Press
QNH
hPa
Press
MSL
hPa
Rain
since 9 am
mm
Dir
 
Spd
km/h
Gust
km/h
Spd
kts
Gust
kts
25/11:30pm 22.3 20.0 19.3 83 1.9 S 30 37 16 20 1009.5 1009.5 0.0
25/11:00pm 22.3 19.1 19.5 84 1.8 S 35 44 19 24 1009.1 1009.1 0.0
25/10:30pm 22.6 19.5 19.6 83 1.9 S 35 48 19 26 1008.8 1008.8 0.0
25/10:00pm 22.8 19.2 19.4 81 2.2 S 37 46 20 25 1008.4 1008.4 0.0
25/09:30pm 22.9 18.5 19.3 80 2.3 S 41 56 22 30 1008.0 1008.0 0.0
25/09:00pm 22.9 18.0 19.1 79 2.4 S 43 52 23 28 1007.3 1007.3 0.0
25/08:30pm 23.1 18.4 19.8 82 2.1 S 44 54 24 29 1006.4 1006.4 0.0
25/08:00pm 23.3 17.4 20.5 84 1.8 S 52 69 28 37 1005.8 1005.8 0.0
25/07:30pm 23.6 18.8 20.4 82 2.1 S 46 59 25 32 1005.3 1005.3 0.0
25/07:00pm 24.8 19.9 21.0 79 2.5 S 48 63 26 34 1004.6 1004.6 0.0
25/06:51pm 27.3 25.9 20.5 66 4.5 ESE 28 63 15 34 1004.0 1004.0 0.0
25/06:48pm 31.0 29.5 16.4 41 9.1 E 19 50 10 27 1003.4 1003.4 0.0
25/06:30pm 30.8 29.7 16.3 41 9.1 ENE 17 22 9 12 1002.8 1002.8 0.0
25/06:00pm 31.8 30.6 16.2 39 9.8 E 17 20 9 11 1002.2 1002.2 0.0
25/05:30pm 31.9 30.6 16.8 40 9.5 NE 19 24 10 13 1001.9 1001.9 0.0
25/05:00pm 31.8 30.9 16.8 40 9.5 ENE 17 22 9 12 1001.7 1001.7 0.0
25/04:30pm 31.5 29.3 16.8 41 9.3 ENE 24 30 13 16 1001.5 1001.5 0.0
25/04:00pm 31.9 28.9 16.8 40 9.6 ENE 28 33 15 18 1001.4 1001.4 0.0
25/03:30pm 32.9 30.0 17.1 39 10.1 E 28 33 15 18 1001.2 1001.2 0.0
25/03:00pm 32.9 30.3 16.9 38 10.2 ENE 26 33 14 18 1001.1 1001.1 0.0
25/02:30pm 34.1 32.9 16.1 34 11.3 ENE 17 24 9 13 1001.0 1001.0 0.0
25/02:00pm 33.6 32.1 16.8 36 10.7 E 20 28 11 15 1001.1 1001.1 0.0
25/01:30pm 35.2 34.0 15.1 30 12.5 E 15 19 8 10 1001.3 1001.3 0.0
25/01:00pm 34.2 34.8 15.8 33 11.6 SW 7 9 4 5 1001.5 1001.5 0.0
25/12:30pm 34.1 35.2 17.1 36 10.9 WNW 7 15 4 8 1001.8 1001.8 0.0
25/12:00pm 31.8 32.6 17.2 41 9.3 W 9 13 5 7 1002.4 1002.4 0.0
25/11:30am 32.1 32.5 17.2 41 9.5 W 11 17 6 9 1002.6 1002.6 0.0
25/11:00am 28.9 31.0 19.4 56 6.2 S 7 13 4 7 1002.7 1002.7 0.0
25/10:30am 29.3 30.3 17.7 49 7.4 W 9 17 5 9 1002.8 1002.8 0.0
25/10:00am 29.0 30.2 18.2 52 6.9 NW 9 15 5 8 1002.6 1002.6 0.0
25/09:30am 27.9 29.3 18.7 57 5.9 W 9 13 5 7 1002.7 1002.7 0.0
25/09:00am 26.0 27.0 19.5 67 4.2 NW 13 15 7 8 1003.1 1003.1 0.4
25/08:30am 24.7 26.0 19.4 72 3.4 NW 11 13 6 7 1003.2 1003.2 0.4
25/08:00am 23.8 25.0 19.9 79 2.5 NW 13 15 7 8 1003.1 1003.1 0.4
25/07:30am 23.7 24.9 19.8 79 2.5 NW 13 15 7 8 1002.8 1002.8 0.4
25/07:00am 22.4 24.2 19.6 84 1.8 WNW 9 11 5 6 1002.6 1002.6 0.4
25/06:30am 22.8 24.5 19.4 81 2.2 NNW 9 11 5 6 1002.1 1002.1 0.4
25/06:00am 22.4 24.1 19.4 83 1.9 NNW 9 11 5 6 1002.0 1002.0 0.4
25/05:30am 21.7 23.1 19.5 87 1.4 WNW 11 13 6 7 1001.9 1001.9 0.4
25/05:00am 22.4 24.0 19.1 81 2.1 N 9 9 5 5 1001.7 1001.7 0.4
25/04:30am 21.9 24.1 19.2 85 1.7 NW 6 7 3 4 1001.8 1001.8 0.4
25/04:00am 21.7 23.5 19.5 87 1.4 NW 9 9 5 5 1002.0 1002.0 0.4
25/03:30am 22.0 23.4 19.5 86 1.6 WNW 11 13 6 7 1002.3 1002.3 0.4
25/03:00am 22.3 23.3 20.3 88 1.3 WNW 15 17 8 9 1002.5 1002.5 0.4
25/02:38am 22.8 23.8 20.3 86 1.6 NW 15 17 8 9 1003.0 1003.0 0.4
25/02:30am 22.9 24.3 20.4 86 1.6 NW 13 15 7 8 1003.2 1003.2 0.4
25/02:00am 23.2 24.3 20.4 84 1.8 NW 15 19 8 10 1003.7 1003.7 0.4
25/01:30am 23.5 25.0 21.2 87 1.5 WNW 15 19 8 10 1004.1 1004.1 0.4
25/01:00am 24.0 25.3 21.7 87 1.5 WNW 17 19 9 10 1004.6 1004.6 0.4
25/12:30am 24.7 25.3 21.4 82 2.2 N 20 26 11 14 1004.4 1004.4 0.4
25/12:00am 24.3 25.2 21.6 85 1.8 NE 19 22 10 12 1004.7 1004.7 0.4
 
Date/Time
EDT
Temp
°C
App
Temp
°C
Dew
Point
Rel
Hum
%
Delta-T
°C
Wind Press
QNH
hPa
Press
MSL
hPa
Rain
since 9 am
mm
Dir
 
Spd
km/h
Gust
km/h
Spd
kts
Gust
kts
24/11:30pm 24.2 26.1 22.1 88 1.4 NNE 15 17 8 9 1005.3 1005.3 0.4
24/11:00pm 25.1 27.4 22.0 83 2.1 NE 13 15 7 8 1005.8 1005.8 0.0
24/10:30pm 26.2 25.8 20.1 69 4.0 N 22 28 12 15 1006.3 1006.3 0.0
24/10:00pm 26.8 27.0 20.2 67 4.3 N 19 26 10 14 1006.5 1006.5 0.0
24/09:30pm 26.8 28.1 20.1 66 4.4 NNE 13 19 7 10 1006.0 1006.0 0.0
24/09:19pm 26.6 26.7 20.0 67 4.3 NNE 19 28 10 15 1006.0 1006.0 0.0
24/09:00pm 26.8 25.9 19.9 66 4.5 NNE 24 32 13 17 1005.8 1005.8 0.0
24/08:30pm 26.6 26.7 20.0 67 4.3 NNE 19 26 10 14 1005.2 1005.2 0.0
24/08:00pm 26.4 26.6 20.5 70 3.9 NNE 20 32 11 17 1005.1 1005.1 0.0
24/07:30pm 26.7 26.4 20.3 68 4.2 NE 22 33 12 18 1004.4 1004.4 0.0
24/07:00pm 26.8 24.4 20.4 68 4.2 NE 33 46 18 25 1004.2 1004.2 0.0
24/06:30pm 27.4 25.5 20.1 64 4.8 NE 30 39 16 21 1003.5 1003.5 0.0
24/06:00pm 27.7 25.0 19.6 61 5.3 NE 33 41 18 22 1003.7 1003.7 0.0
24/05:30pm 28.4 25.7 19.2 57 6.0 NE 32 41 17 22 1003.4 1003.4 0.0
24/05:00pm 28.2 23.8 18.4 55 6.3 NE 39 50 21 27 1003.3 1003.3 0.0
24/04:30pm 29.6 25.8 18.2 50 7.3 NE 35 50 19 27 1003.9 1003.9 0.0
24/04:00pm 29.7 24.8 17.4 47 7.8 NE 39 50 21 27 1004.3 1004.3 0.0
24/03:30pm 30.6 26.1 16.4 42 8.9 NE 35 52 19 28 1004.3 1004.3 0.0
24/03:00pm 31.1 26.1 16.1 40 9.4 NE 37 46 20 25 1004.6 1004.6 0.0
24/02:30pm 30.6 26.6 16.8 43 8.7 NE 33 39 18 21 1005.3 1005.3 0.0
24/02:00pm 30.5 26.6 16.9 44 8.6 NE 33 41 18 22 1005.7 1005.7 0.0
24/01:30pm 30.7 27.1 17.1 44 8.6 NE 32 39 17 21 1006.1 1006.1 0.0
24/01:00pm 30.0 26.1 17.0 45 8.2 NE 33 39 18 21 1006.4 1006.4 0.0
24/12:30pm 30.7 26.9 17.1 44 8.6 NNE 33 39 18 21 1006.8 1006.8 0.0
24/12:00pm 29.3 25.6 16.9 47 7.8 NE 32 37 17 20 1007.1 1007.1 0.0
24/11:30am 29.7 25.7 16.8 45 8.1 NE 33 39 18 21 1007.3 1007.3 0.0
24/11:00am 29.5 25.7 17.1 47 7.8 NE 33 41 18 22 1007.4 1007.4 0.0
24/10:30am 28.4 26.4 18.2 54 6.5 NNE 26 33 14 18 1007.7 1007.7 0.0
24/10:00am 27.4 27.4 19.7 63 5.0 NE 19 26 10 14 1007.8 1007.8 0.0
24/09:30am 27.8 27.8 19.8 61 5.2 NE 19 22 10 12 1008.0 1008.0 0.0
24/09:00am 27.5 28.1 19.5 61 5.2 NNE 15 19 8 10 1008.0 1008.0 0.4
24/08:30am 26.5 27.6 19.6 66 4.5 NNE 13 22 7 12 1008.0 1008.0 0.4
24/08:00am 25.9 27.4 19.7 68 4.0 NNE 11 13 6 7 1007.8 1007.8 0.4
24/07:30am 25.1 26.6 19.7 72 3.5 NNE 11 13 6 7 1007.7 1007.7 0.4
24/07:00am 24.5 24.8 19.7 74 3.1 N 17 20 9 11 1007.3 1007.3 0.4
24/06:30am 24.0 23.8 19.8 77 2.7 NNE 20 26 11 14 1006.9 1006.9 0.4
24/06:00am 23.9 23.7 19.7 77 2.7 NNE 20 26 11 14 1006.9 1006.9 0.4
24/05:30am 23.6 23.5 19.9 80 2.4 NNE 20 26 11 14 1006.8 1006.8 0.4
24/05:00am 23.8 23.9 19.9 79 2.5 NNE 19 26 10 14 1006.6 1006.6 0.4
24/04:30am 23.9 24.4 20.0 79 2.5 NNE 17 20 9 11 1006.4 1006.4 0.4
24/04:00am 23.7 24.2 20.0 80 2.4 NNE 17 22 9 12 1006.2 1006.2 0.4
24/03:30am 23.5 22.7 20.1 81 2.2 NNE 24 33 13 18 1006.2 1006.2 0.4
24/03:00am 23.5 22.0 20.3 82 2.1 NNE 28 35 15 19 1006.3 1006.3 0.4
24/02:30am 23.5 22.1 20.4 83 2.0 NNE 28 37 15 20 1006.3 1006.3 0.4
24/02:00am 24.0 22.3 20.5 81 2.3 NNE 30 37 16 20 1006.5 1006.5 0.4
24/01:30am 24.1 22.3 20.4 80 2.4 NNE 30 39 16 21 1006.8 1006.8 0.4
24/01:00am 24.1 22.7 20.4 80 2.4 NNE 28 35 15 19 1006.9 1006.9 0.4
24/12:30am 24.7 22.9 20.4 77 2.8 NNE 30 37 16 20 1006.9 1006.9 0.4
24/12:00am 24.7 23.2 20.2 76 2.9 NNE 28 37 15 20 1007.1 1007.1 0.4
 
Date/Time
EDT
Temp
°C
App
Temp
°C
Dew
Point
Rel
Hum
%
Delta-T
°C
Wind Press
QNH
hPa
Press
MSL
hPa
Rain
since 9 am
mm
Dir
 
Spd
km/h
Gust
km/h
Spd
kts
Gust
kts
23/11:30pm 25.2 22.9 20.1 73 3.3 NNE 32 39 17 21 1007.4 1007.4 0.4
23/11:00pm 25.4 23.9 20.2 73 3.4 NNE 28 35 15 19 1007.2 1007.2 0.4
23/10:30pm 25.4 22.6 20.3 73 3.3 NE 35 46 19 25 1007.0 1007.0 0.4
23/10:00pm 25.8 23.4 20.3 71 3.6 NNE 33 41 18 22 1007.1 1007.1 0.4
23/09:30pm 25.5 22.7 20.3 73 3.4 NNE 35 41 19 22 1006.9 1006.9 0.4
23/09:00pm 25.9 22.8 20.4 71 3.6 NNE 37 50 20 27 1006.5 1006.5 0.4
23/08:30pm 26.1 23.9 20.3 70 3.8 NNE 32 48 17 26 1006.5 1006.5 0.4
23/08:00pm 26.1 22.9 20.3 70 3.8 NNE 37 48 20 26 1006.3 1006.3 0.4
23/07:30pm 26.5 23.2 20.1 68 4.2 NNE 37 54 20 29 1006.6 1006.6 0.4
23/07:00pm 26.9 22.8 20.0 66 4.5 NNE 41 56 22 30 1006.1 1006.1 0.4

Other Formats:

Comma delimited format used in spreadsheet applications
http://www.bom.gov.au/fwo/IDN60801/IDN60801.94767.axf

JavaScript Object Notation format (JSON) in row-major order
http://www.bom.gov.au/fwo/IDN60801/IDN60801.94767.json